createdAt,value
2022-12-29T11:17:24.503Z,994.08
2022-12-29T11:18:24.501Z,994.09
2022-12-29T11:19:24.534Z,994.13
2022-12-29T11:20:24.521Z,994.06
2022-12-29T11:21:24.525Z,994.1
2022-12-29T11:22:24.552Z,994.01
2022-12-29T11:23:24.588Z,994.06
2022-12-29T11:24:24.568Z,994.05
2022-12-29T11:25:24.599Z,994.05
2022-12-29T11:26:28.904Z,994.01
2022-12-29T11:27:24.659Z,994.05
2022-12-29T11:28:24.689Z,993.95
2022-12-29T11:29:24.643Z,993.96
2022-12-29T11:30:24.651Z,993.97
2022-12-29T11:31:24.718Z,993.91
2022-12-29T11:32:28.682Z,993.93
2022-12-29T11:33:24.713Z,993.88
2022-12-29T11:34:24.733Z,993.89
2022-12-29T11:35:24.706Z,993.92
2022-12-29T11:36:24.721Z,993.92
2022-12-29T11:37:24.837Z,993.99
2022-12-29T11:38:24.776Z,993.9
2022-12-29T11:39:24.776Z,994
2022-12-29T11:40:24.820Z,994
2022-12-29T11:41:24.885Z,993.97
2022-12-29T11:42:24.993Z,994
2022-12-29T11:43:24.989Z,993.98
2022-12-29T11:44:25.029Z,994.08
2022-12-29T11:45:24.841Z,994.12
2022-12-29T11:46:24.875Z,994.15
2022-12-29T11:47:24.892Z,994.16
2022-12-29T11:48:24.864Z,994.16
2022-12-29T11:49:24.920Z,994.13
2022-12-29T11:50:25.040Z,994.14
2022-12-29T11:51:26.401Z,994.13
2022-12-29T11:52:24.916Z,994.18
2022-12-29T11:53:24.987Z,994.1
2022-12-29T11:54:24.943Z,994.14
2022-12-29T11:55:25.021Z,994.05
2022-12-29T11:56:24.973Z,994.1
2022-12-29T11:57:24.983Z,993.92
2022-12-29T11:58:24.997Z,993.98
2022-12-29T11:59:25.020Z,994.04
2022-12-29T12:00:25.044Z,994
2022-12-29T12:01:25.080Z,994.08
2022-12-29T12:02:25.140Z,994.08
2022-12-29T12:03:25.155Z,994.01
2022-12-29T12:04:25.192Z,994.12
2022-12-29T12:05:25.104Z,994.15
2022-12-29T12:06:25.108Z,994.1
2022-12-29T12:07:25.099Z,994.13
2022-12-29T12:08:25.117Z,994.14
2022-12-29T12:09:25.127Z,994.19
2022-12-29T12:10:25.145Z,994.16
2022-12-29T12:11:25.150Z,994.16
2022-12-29T12:12:25.165Z,994.24
2022-12-29T12:13:25.176Z,994.24
2022-12-29T12:14:25.207Z,994.11
2022-12-29T12:15:25.201Z,994.19
2022-12-29T12:16:25.281Z,994.13
2022-12-29T12:17:25.281Z,994.11
2022-12-29T12:18:25.242Z,994.03
2022-12-29T12:19:25.253Z,993.95
2022-12-29T12:20:25.260Z,994.11
2022-12-29T12:21:25.300Z,994.09
2022-12-29T12:22:25.290Z,994.09
2022-12-29T12:23:25.304Z,994.12
2022-12-29T12:24:25.310Z,994.1
2022-12-29T12:25:25.569Z,994.21
2022-12-29T12:26:25.420Z,994.12
2022-12-29T12:27:25.667Z,994.07
2022-12-29T12:28:25.485Z,994.18
2022-12-29T12:29:25.493Z,994.08
2022-12-29T12:30:25.391Z,994.03
2022-12-29T12:31:25.462Z,994.12
2022-12-29T12:32:25.418Z,994.12
2022-12-29T12:33:25.429Z,994.15
2022-12-29T12:34:25.456Z,994.04
2022-12-29T12:35:25.471Z,994.05
2022-12-29T12:36:25.488Z,994.08
2022-12-29T12:37:25.524Z,994.06
2022-12-29T12:38:25.518Z,994.05
2022-12-29T12:39:25.528Z,994.02
2022-12-29T12:40:25.560Z,994.02
2022-12-29T12:41:25.542Z,994.01
2022-12-29T12:42:25.610Z,994.05
2022-12-29T12:43:25.592Z,994.02
2022-12-29T12:44:25.577Z,994.02
2022-12-29T12:45:25.594Z,994
2022-12-29T12:46:25.685Z,993.97
2022-12-29T12:47:25.631Z,993.96
2022-12-29T12:48:25.644Z,993.99
2022-12-29T12:49:25.653Z,994.09
2022-12-29T12:50:25.660Z,994.04
2022-12-29T12:51:25.698Z,994.06
2022-12-29T12:52:25.733Z,994.01
2022-12-29T12:53:25.770Z,993.96
2022-12-29T12:54:25.716Z,994
2022-12-29T12:55:25.742Z,994.1
2022-12-29T12:56:25.753Z,994.06
2022-12-29T12:57:25.796Z,994.02
2022-12-29T12:58:25.777Z,994.05
2022-12-29T12:59:25.776Z,994.01
2022-12-29T13:00:25.789Z,994.02
2022-12-29T13:01:26.134Z,994
2022-12-29T13:02:26.042Z,994.02
2022-12-29T13:03:25.868Z,994.02
2022-12-29T13:04:25.862Z,994.1
2022-12-29T13:05:26.965Z,994.1
2022-12-29T13:06:25.870Z,994.09
2022-12-29T13:07:25.893Z,994.12
2022-12-29T13:08:25.895Z,994.07
2022-12-29T13:09:25.927Z,994.07
2022-12-29T13:10:25.920Z,994.12
2022-12-29T13:11:25.956Z,994.1
2022-12-29T13:12:25.943Z,994.24
2022-12-29T13:13:25.989Z,994.11
2022-12-29T13:14:25.977Z,994.25
2022-12-29T13:15:25.978Z,994.07
2022-12-29T13:16:26.064Z,994.32
2022-12-29T13:17:26.036Z,994.25
2022-12-29T13:18:26.023Z,994.32
2022-12-29T13:19:26.033Z,994.17
2022-12-29T13:20:26.051Z,994.24
2022-12-29T13:21:26.057Z,994.23
2022-12-29T13:22:26.108Z,994.26
2022-12-29T13:23:26.082Z,994.32
2022-12-29T13:24:26.130Z,994.32
2022-12-29T13:25:26.186Z,994.33
2022-12-29T13:26:26.128Z,994.37
2022-12-29T13:27:27.108Z,994.39
2022-12-29T13:28:26.207Z,994.38
2022-12-29T13:29:26.152Z,994.42
2022-12-29T13:30:26.171Z,994.42
2022-12-29T13:31:26.269Z,994.33
2022-12-29T13:32:26.201Z,994.37
2022-12-29T13:33:26.268Z,994.37
2022-12-29T13:34:26.258Z,994.44
2022-12-29T13:35:26.225Z,994.39
2022-12-29T13:36:26.299Z,994.27
2022-12-29T13:37:26.999Z,994.35
2022-12-29T13:38:26.269Z,994.31
2022-12-29T13:39:26.353Z,994.25
2022-12-29T13:40:26.545Z,994.28
2022-12-29T13:41:26.331Z,994.26
2022-12-29T13:42:26.390Z,994.31
2022-12-29T13:43:26.364Z,994.24
2022-12-29T13:44:26.363Z,994.34
2022-12-29T13:45:26.396Z,994.4
2022-12-29T13:46:26.443Z,994.4
2022-12-29T13:47:26.373Z,994.37
2022-12-29T13:48:27.018Z,994.42
2022-12-29T13:49:26.904Z,994.37
2022-12-29T13:50:26.457Z,994.34
2022-12-29T13:51:28.149Z,994.29
2022-12-29T13:52:26.477Z,994.39
2022-12-29T13:53:26.449Z,994.39
2022-12-29T13:54:26.456Z,994.43
2022-12-29T13:55:26.470Z,994.47
2022-12-29T13:56:26.489Z,994.45
2022-12-29T13:57:27.827Z,994.44
2022-12-29T13:58:26.531Z,994.56
2022-12-29T13:59:26.520Z,994.55
2022-12-29T14:00:26.538Z,994.55
2022-12-29T14:01:26.639Z,994.54
2022-12-29T14:02:26.721Z,994.59
2022-12-29T14:03:30.141Z,994.61
2022-12-29T14:04:26.600Z,994.58
2022-12-29T14:05:26.692Z,994.64
2022-12-29T14:06:26.589Z,994.72
2022-12-29T14:07:26.607Z,994.7
2022-12-29T14:08:26.618Z,994.7
2022-12-29T14:09:30.392Z,994.73
2022-12-29T14:10:26.899Z,994.73
2022-12-29T14:11:26.813Z,994.65
2022-12-29T14:12:28.076Z,994.72
2022-12-29T14:13:28.147Z,994.73
2022-12-29T14:14:26.785Z,994.7
2022-12-29T14:15:26.721Z,994.8
2022-12-29T14:16:26.908Z,994.8
2022-12-29T14:17:26.713Z,994.73
2022-12-29T14:18:26.743Z,994.83
2022-12-29T14:19:26.736Z,994.83
2022-12-29T14:20:26.827Z,994.9
2022-12-29T14:21:26.868Z,994.84
2022-12-29T14:22:32.563Z,994.85
2022-12-29T14:23:26.783Z,994.89
2022-12-29T14:24:26.783Z,994.81
2022-12-29T14:25:26.917Z,994.81
2022-12-29T14:26:26.859Z,994.86
2022-12-29T14:27:26.822Z,994.86
2022-12-29T14:28:26.836Z,994.87
2022-12-29T14:29:26.912Z,994.86
2022-12-29T14:30:27.122Z,994.9
2022-12-29T14:31:27.311Z,994.93
2022-12-29T14:32:27.196Z,994.93
2022-12-29T14:33:26.882Z,994.94
2022-12-29T14:34:27.026Z,994.94
2022-12-29T14:35:27.248Z,994.95
2022-12-29T14:36:26.991Z,994.92
2022-12-29T14:37:27.020Z,994.98
2022-12-29T14:38:26.933Z,994.99
2022-12-29T14:39:27.191Z,995.01
2022-12-29T14:40:26.957Z,994.95
2022-12-29T14:41:27.051Z,994.98
2022-12-29T14:42:26.979Z,995.04
2022-12-29T14:43:26.994Z,995.09
2022-12-29T14:44:26.995Z,995.13
2022-12-29T14:45:27.093Z,995.17
2022-12-29T14:46:27.107Z,995.17
2022-12-29T14:47:27.054Z,995.16
2022-12-29T14:48:27.039Z,995.14
2022-12-29T14:49:27.057Z,995.11
2022-12-29T14:50:27.173Z,995.14
2022-12-29T14:51:27.263Z,995.09
2022-12-29T14:52:27.088Z,995.14
2022-12-29T14:53:27.179Z,995.16
2022-12-29T14:54:27.102Z,995.11
2022-12-29T14:55:27.112Z,995.15
2022-12-29T14:56:27.207Z,995.09
2022-12-29T14:57:27.126Z,995.17
2022-12-29T14:58:27.136Z,995.18
2022-12-29T14:59:27.147Z,995.17
2022-12-29T15:00:27.238Z,995.16
2022-12-29T15:01:27.323Z,995.14
2022-12-29T15:02:27.305Z,995.18
2022-12-29T15:03:27.195Z,995.17
2022-12-29T15:04:27.251Z,995.2
2022-12-29T15:05:27.298Z,995.22
2022-12-29T15:06:27.239Z,995.18
2022-12-29T15:07:27.292Z,995.3
2022-12-29T15:08:27.239Z,995.27
2022-12-29T15:09:27.256Z,995.31
2022-12-29T15:10:27.264Z,995.31
2022-12-29T15:11:27.310Z,995.34
2022-12-29T15:12:27.410Z,995.32
2022-12-29T15:13:27.511Z,995.31
2022-12-29T15:14:27.301Z,995.34
2022-12-29T15:15:27.315Z,995.38
2022-12-29T15:16:27.419Z,995.39
2022-12-29T15:17:27.352Z,995.36
2022-12-29T15:18:27.335Z,995.43
2022-12-29T15:19:27.342Z,995.45
2022-12-29T15:20:27.366Z,995.42
2022-12-29T15:21:27.387Z,995.43
2022-12-29T15:22:27.400Z,995.48
2022-12-29T15:23:27.417Z,995.48
2022-12-29T15:24:27.469Z,995.49
2022-12-29T15:25:27.464Z,995.51
2022-12-29T15:26:27.641Z,995.56
2022-12-29T15:27:27.604Z,995.49
2022-12-29T15:28:27.433Z,995.51
2022-12-29T15:29:27.443Z,995.53
2022-12-29T15:30:27.576Z,995.48
2022-12-29T15:31:30.723Z,995.52
2022-12-29T15:32:27.679Z,995.51
2022-12-29T15:33:27.745Z,995.46
2022-12-29T15:34:27.591Z,995.52
2022-12-29T15:35:27.574Z,995.55
2022-12-29T15:36:27.543Z,995.55
2022-12-29T15:37:27.519Z,995.55
2022-12-29T15:38:32.457Z,995.62
2022-12-29T15:39:27.595Z,995.66
2022-12-29T15:40:27.670Z,995.67
2022-12-29T15:41:27.565Z,995.7
2022-12-29T15:42:27.573Z,995.74
2022-12-29T15:43:27.577Z,995.69
2022-12-29T15:44:27.633Z,995.59
2022-12-29T15:45:27.693Z,995.61
2022-12-29T15:46:27.692Z,995.66
2022-12-29T15:47:27.620Z,995.66
2022-12-29T15:48:27.690Z,995.67
2022-12-29T15:49:32.143Z,995.74
2022-12-29T15:50:27.674Z,995.77
2022-12-29T15:51:27.696Z,995.8
2022-12-29T15:52:27.662Z,995.78
2022-12-29T15:53:29.174Z,995.79
2022-12-29T15:54:27.738Z,995.79
2022-12-29T15:55:27.991Z,995.82
2022-12-29T15:56:27.827Z,995.85
2022-12-29T15:57:27.710Z,995.93
2022-12-29T15:58:27.720Z,995.86
2022-12-29T15:59:27.729Z,995.84
2022-12-29T16:00:27.755Z,995.87
2022-12-29T16:01:27.795Z,995.85
2022-12-29T16:02:27.910Z,995.87
2022-12-29T16:03:27.989Z,995.86
2022-12-29T16:04:27.771Z,995.79
2022-12-29T16:05:27.801Z,995.79
2022-12-29T16:06:27.837Z,995.83
2022-12-29T16:07:27.814Z,995.92
2022-12-29T16:08:27.802Z,995.91
2022-12-29T16:09:27.882Z,995.98
2022-12-29T16:10:27.822Z,996.04
2022-12-29T16:11:27.970Z,996.06
2022-12-29T16:12:28.056Z,996.07
2022-12-29T16:13:27.854Z,996.08
2022-12-29T16:14:28.079Z,996.08
2022-12-29T16:15:27.901Z,996.09
2022-12-29T16:16:27.934Z,996.1
2022-12-29T16:17:28.005Z,996.14
2022-12-29T16:18:27.891Z,996.12
2022-12-29T16:19:27.907Z,996.13
2022-12-29T16:20:27.909Z,996.13
2022-12-29T16:21:27.942Z,996.09
2022-12-29T16:22:27.923Z,996.07
2022-12-29T16:23:27.948Z,996.1
2022-12-29T16:24:27.940Z,996.11
2022-12-29T16:25:28.002Z,996.06
2022-12-29T16:26:27.960Z,996.09
2022-12-29T16:27:27.959Z,996.07
2022-12-29T16:28:28.105Z,996.13
2022-12-29T16:29:27.992Z,996.07
2022-12-29T16:30:33.358Z,996.1
2022-12-29T16:31:28.030Z,996.08
2022-12-29T16:32:28.008Z,996.06
2022-12-29T16:33:28.016Z,996.04
2022-12-29T16:34:28.022Z,996.04
2022-12-29T16:35:28.028Z,996
2022-12-29T16:36:28.063Z,996.05
2022-12-29T16:37:28.074Z,996.07
2022-12-29T16:38:28.053Z,996.06
2022-12-29T16:39:28.080Z,996.07
2022-12-29T16:40:28.085Z,996.06
2022-12-29T16:41:28.073Z,996.06
2022-12-29T16:42:28.127Z,996.02
2022-12-29T16:43:28.097Z,996.08
2022-12-29T16:44:28.118Z,996.16
2022-12-29T16:45:28.336Z,996.13
2022-12-29T16:46:28.778Z,996.13
2022-12-29T16:47:28.119Z,996.13
2022-12-29T16:48:28.133Z,996.15
2022-12-29T16:49:28.216Z,996.2
2022-12-29T16:50:28.991Z,996.19
2022-12-29T16:51:28.224Z,996.18
2022-12-29T16:52:28.230Z,996.17
2022-12-29T16:53:28.217Z,996.21
2022-12-29T16:54:28.177Z,996.21
2022-12-29T16:55:28.179Z,996.26
2022-12-29T16:56:28.210Z,996.23
2022-12-29T16:57:28.253Z,996.29
2022-12-29T16:58:28.211Z,996.25
2022-12-29T16:59:28.214Z,996.26
2022-12-29T17:00:28.232Z,996.2
2022-12-29T17:01:28.356Z,996.31
2022-12-29T17:02:28.448Z,996.29
2022-12-29T17:03:28.321Z,996.31
2022-12-29T17:04:28.291Z,996.26
2022-12-29T17:05:28.263Z,996.29
2022-12-29T17:06:28.280Z,996.32
2022-12-29T17:07:28.308Z,996.3
2022-12-29T17:08:28.282Z,996.26
2022-12-29T17:09:28.308Z,996.3
2022-12-29T17:10:28.313Z,996.31
2022-12-29T17:11:28.310Z,996.31
2022-12-29T17:12:28.332Z,996.3
2022-12-29T17:13:28.324Z,996.31
2022-12-29T17:14:28.328Z,996.27
2022-12-29T17:15:28.381Z,996.3
2022-12-29T17:16:28.415Z,996.34
2022-12-29T17:17:28.404Z,996.32
2022-12-29T17:18:28.355Z,996.34
2022-12-29T17:19:28.388Z,996.33
2022-12-29T17:20:28.389Z,996.33
2022-12-29T17:21:28.419Z,996.32
2022-12-29T17:22:28.453Z,996.3
2022-12-29T17:23:28.391Z,996.33
2022-12-29T17:24:28.472Z,996.33
2022-12-29T17:25:28.437Z,996.31
2022-12-29T17:26:28.417Z,996.33
2022-12-29T17:27:28.421Z,996.39
2022-12-29T17:28:28.434Z,996.34
2022-12-29T17:29:28.501Z,996.33
2022-12-29T17:30:33.101Z,996.31
2022-12-29T17:31:28.543Z,996.33
2022-12-29T17:32:28.456Z,996.28
2022-12-29T17:33:28.493Z,996.32
2022-12-29T17:34:28.521Z,996.3
2022-12-29T17:35:28.476Z,996.29
2022-12-29T17:36:28.479Z,996.24
2022-12-29T17:37:28.531Z,996.27
2022-12-29T17:38:28.495Z,996.3
2022-12-29T17:39:28.508Z,996.34
2022-12-29T17:40:28.589Z,996.34
2022-12-29T17:41:29.146Z,996.36
2022-12-29T17:42:28.574Z,996.33
2022-12-29T17:43:36.297Z,996.31
2022-12-29T17:44:28.555Z,996.3
2022-12-29T17:45:28.610Z,996.29
2022-12-29T17:46:28.555Z,996.27
2022-12-29T17:47:28.560Z,996.3
2022-12-29T17:48:28.596Z,996.29
2022-12-29T17:49:28.569Z,996.27
2022-12-29T17:50:28.642Z,996.34
2022-12-29T17:51:28.584Z,996.34
2022-12-29T17:52:28.596Z,996.36
2022-12-29T17:53:28.609Z,996.39
2022-12-29T17:54:28.599Z,996.36
2022-12-29T17:55:32.954Z,996.36
2022-12-29T17:56:28.613Z,996.39
2022-12-29T17:57:28.671Z,996.46
2022-12-29T17:58:28.623Z,996.5
2022-12-29T17:59:28.640Z,996.44
2022-12-29T18:00:28.650Z,996.47
2022-12-29T18:01:32.534Z,996.47
2022-12-29T18:02:28.906Z,996.47
2022-12-29T18:03:28.893Z,996.43
2022-12-29T18:04:28.685Z,996.48
2022-12-29T18:05:28.697Z,996.51
2022-12-29T18:06:28.877Z,996.5
2022-12-29T18:07:34.028Z,996.54
2022-12-29T18:08:28.993Z,996.58
2022-12-29T18:09:28.742Z,996.54
2022-12-29T18:10:29.657Z,996.56
2022-12-29T18:11:28.709Z,996.59
2022-12-29T18:12:28.720Z,996.56
2022-12-29T18:13:35.984Z,996.48
2022-12-29T18:14:28.730Z,996.5
2022-12-29T18:15:28.800Z,996.47
2022-12-29T18:16:28.797Z,996.5
2022-12-29T18:17:28.830Z,996.5
2022-12-29T18:18:28.761Z,996.46
2022-12-29T18:19:34.016Z,996.53
2022-12-29T18:20:28.775Z,996.54
2022-12-29T18:21:28.777Z,996.56
2022-12-29T18:22:28.788Z,996.58
2022-12-29T18:23:28.855Z,996.57
2022-12-29T18:24:28.799Z,996.58
2022-12-29T18:25:29.447Z,996.58
2022-12-29T18:26:29.085Z,996.53
2022-12-29T18:27:28.918Z,996.57
2022-12-29T18:28:28.830Z,996.56
2022-12-29T18:29:28.936Z,996.55
2022-12-29T18:30:28.901Z,996.62
2022-12-29T18:31:28.960Z,996.54
2022-12-29T18:32:28.850Z,996.56
2022-12-29T18:33:28.865Z,996.57
2022-12-29T18:34:28.867Z,996.56
2022-12-29T18:35:29.076Z,996.56
2022-12-29T18:36:28.897Z,996.57
2022-12-29T18:37:28.888Z,996.54
2022-12-29T18:38:28.901Z,996.53
2022-12-29T18:39:29.938Z,996.53
2022-12-29T18:40:28.910Z,996.5
2022-12-29T18:41:28.915Z,996.51
2022-12-29T18:42:28.921Z,996.55
2022-12-29T18:43:28.925Z,996.51
2022-12-29T18:44:28.936Z,996.49
2022-12-29T18:45:28.995Z,996.51
2022-12-29T18:46:29.043Z,996.58
2022-12-29T18:47:28.955Z,996.59
2022-12-29T18:48:28.961Z,996.56
2022-12-29T18:49:28.963Z,996.57
2022-12-29T18:50:29.013Z,996.57
2022-12-29T18:51:28.976Z,996.65
2022-12-29T18:52:29.044Z,996.64
2022-12-29T18:53:29.199Z,996.62
2022-12-29T18:54:29.020Z,996.65
2022-12-29T18:55:29.068Z,996.71
2022-12-29T18:56:29.015Z,996.7
2022-12-29T18:57:29.109Z,996.69
2022-12-29T18:58:33.823Z,996.72
2022-12-29T18:59:29.055Z,996.67
2022-12-29T19:00:29.038Z,996.72
2022-12-29T19:01:29.155Z,996.72
2022-12-29T19:02:29.656Z,996.67
2022-12-29T19:03:29.181Z,996.69
2022-12-29T19:04:29.063Z,996.69
2022-12-29T19:05:29.129Z,996.67
2022-12-29T19:06:29.083Z,996.65
2022-12-29T19:07:29.090Z,996.7
2022-12-29T19:08:29.095Z,996.7
2022-12-29T19:09:29.098Z,996.73
2022-12-29T19:10:29.118Z,996.71
2022-12-29T19:11:30.466Z,996.74
2022-12-29T19:12:29.233Z,996.72
2022-12-29T19:13:29.755Z,996.77
2022-12-29T19:14:29.132Z,996.82
2022-12-29T19:15:29.140Z,996.77
2022-12-29T19:16:29.224Z,996.79
2022-12-29T19:17:29.255Z,996.77
2022-12-29T19:18:46.488Z,996.75
2022-12-29T19:19:29.169Z,996.75
2022-12-29T19:20:29.176Z,996.71
2022-12-29T19:21:29.193Z,996.71
2022-12-29T19:22:29.186Z,996.72
2022-12-29T19:23:29.238Z,996.7
2022-12-29T19:24:29.201Z,996.72
2022-12-29T19:25:29.214Z,996.66
2022-12-29T19:26:29.237Z,996.64
2022-12-29T19:27:29.220Z,996.63
2022-12-29T19:28:29.231Z,996.56
2022-12-29T19:29:29.231Z,996.61
2022-12-29T19:30:29.237Z,996.62
2022-12-29T19:31:29.344Z,996.63
2022-12-29T19:32:29.255Z,996.63
2022-12-29T19:33:29.297Z,996.68
2022-12-29T19:34:29.269Z,996.65
2022-12-29T19:35:29.276Z,996.59
2022-12-29T19:36:29.585Z,996.56
2022-12-29T19:37:29.351Z,996.62
2022-12-29T19:38:29.298Z,996.6
2022-12-29T19:39:29.299Z,996.57
2022-12-29T19:40:29.311Z,996.56
2022-12-29T19:41:29.346Z,996.58
2022-12-29T19:42:29.313Z,996.59
2022-12-29T19:43:29.327Z,996.6
2022-12-29T19:44:29.329Z,996.6
2022-12-29T19:45:29.340Z,996.58
2022-12-29T19:46:29.408Z,996.56
2022-12-29T19:47:31.779Z,996.54
2022-12-29T19:48:29.356Z,996.54
2022-12-29T19:49:29.420Z,996.59
2022-12-29T19:50:29.371Z,996.6
2022-12-29T19:51:29.372Z,996.56
2022-12-29T19:52:29.382Z,996.56
2022-12-29T19:53:29.383Z,996.56
2022-12-29T19:54:29.393Z,996.56
2022-12-29T19:55:29.470Z,996.52
2022-12-29T19:56:29.408Z,996.54
2022-12-29T19:57:30.047Z,996.5
2022-12-29T19:58:29.421Z,996.51
2022-12-29T19:59:29.425Z,996.55
2022-12-29T20:00:29.430Z,996.57
2022-12-29T20:01:29.543Z,996.6
2022-12-29T20:02:29.537Z,996.57
2022-12-29T20:03:29.548Z,996.61
2022-12-29T20:04:29.455Z,996.61
2022-12-29T20:05:29.492Z,996.59
2022-12-29T20:06:29.552Z,996.54
2022-12-29T20:07:29.545Z,996.58
2022-12-29T20:08:29.485Z,996.64
2022-12-29T20:09:29.594Z,996.67
2022-12-29T20:10:29.541Z,996.66
2022-12-29T20:11:29.522Z,996.7
2022-12-29T20:12:29.636Z,996.76
2022-12-29T20:13:29.520Z,996.77
2022-12-29T20:14:29.527Z,996.73
2022-12-29T20:15:29.530Z,996.74
2022-12-29T20:16:29.646Z,996.68
2022-12-29T20:18:02.201Z,996.66
2022-12-29T20:18:30.172Z,996.66
2022-12-29T20:19:30.089Z,996.67
2022-12-29T20:20:30.105Z,996.69
2022-12-29T20:21:30.173Z,996.76
2022-12-29T20:22:30.120Z,996.73
2022-12-29T20:23:30.119Z,996.78
2022-12-29T20:24:30.161Z,996.8
2022-12-29T20:25:46.571Z,996.83
2022-12-29T20:26:30.155Z,996.88
2022-12-29T20:27:30.145Z,996.89
2022-12-29T20:28:30.255Z,996.86
2022-12-29T20:29:30.379Z,996.91
2022-12-29T20:30:30.168Z,996.89
2022-12-29T20:31:30.201Z,996.88
2022-12-29T20:32:30.173Z,996.89
2022-12-29T20:33:30.177Z,996.86
2022-12-29T20:34:30.190Z,996.87
2022-12-29T20:35:30.191Z,996.86
2022-12-29T20:36:30.199Z,996.89
2022-12-29T20:37:30.362Z,996.87
2022-12-29T20:38:30.826Z,996.86
2022-12-29T20:39:30.222Z,996.84
2022-12-29T20:40:30.294Z,996.83
2022-12-29T20:41:30.256Z,996.83
2022-12-29T20:42:30.272Z,996.82
2022-12-29T20:43:30.243Z,996.83
2022-12-29T20:44:30.245Z,996.83
2022-12-29T20:45:30.266Z,996.84
2022-12-29T20:46:35.158Z,996.86
2022-12-29T20:47:30.269Z,996.86
2022-12-29T20:48:30.280Z,996.85
2022-12-29T20:49:30.391Z,996.86
2022-12-29T20:50:30.287Z,996.87
2022-12-29T20:51:50.906Z,996.9
2022-12-29T20:52:30.425Z,996.85
2022-12-29T20:53:30.338Z,996.9
2022-12-29T20:54:34.069Z,996.9
2022-12-29T20:55:30.477Z,996.9
2022-12-29T20:56:30.381Z,996.89
2022-12-29T20:57:44.553Z,996.92
2022-12-29T20:59:27.967Z,996.96
2022-12-29T21:00:25.426Z,996.96
2022-12-29T21:01:25.570Z,996.96
2022-12-29T21:02:25.585Z,997.01
2022-12-29T21:03:25.479Z,996.99
2022-12-29T21:04:25.438Z,997.03
2022-12-29T21:05:26.987Z,996.97
2022-12-29T21:06:26.973Z,997
2022-12-29T21:07:26.975Z,996.98
2022-12-29T21:08:27.181Z,997.01
2022-12-29T21:09:27.023Z,997.02
2022-12-29T21:10:27.619Z,997.03
2022-12-29T21:11:27.616Z,996.98
2022-12-29T21:12:27.007Z,997.07
2022-12-29T21:13:27.013Z,997.03
2022-12-29T21:14:27.015Z,997.06
2022-12-29T21:15:27.035Z,997.1
2022-12-29T21:16:27.083Z,997.13
2022-12-29T21:17:27.039Z,997.16
2022-12-29T21:18:27.044Z,997.15
2022-12-29T21:19:27.049Z,997.15
2022-12-29T21:20:27.076Z,997.17
2022-12-29T21:21:27.086Z,997.1
2022-12-29T21:22:27.072Z,997.08
2022-12-29T21:23:27.075Z,997.08
2022-12-29T21:24:27.080Z,997.11
2022-12-29T21:25:27.150Z,997.18
2022-12-29T21:26:27.094Z,997.17
2022-12-29T21:27:28.121Z,997.17
2022-12-29T21:28:27.131Z,997.18
2022-12-29T21:29:27.233Z,997.16
2022-12-29T21:30:27.131Z,997.17
2022-12-29T21:31:27.267Z,997.22
2022-12-29T21:32:27.334Z,997.16
2022-12-29T21:33:27.164Z,997.17
2022-12-29T21:34:27.163Z,997.16
2022-12-29T21:35:27.146Z,997.14
2022-12-29T21:36:27.152Z,997.19
2022-12-29T21:37:27.163Z,997.16
2022-12-29T21:38:27.168Z,997.24
2022-12-29T21:39:27.858Z,997.22
2022-12-29T21:40:27.193Z,997.24
2022-12-29T21:41:28.301Z,997.33
2022-12-29T21:42:27.382Z,997.29
2022-12-29T21:43:27.196Z,997.27
2022-12-29T21:44:27.205Z,997.26
2022-12-29T21:45:27.212Z,997.28
2022-12-29T21:46:27.330Z,997.31
2022-12-29T21:47:27.963Z,997.27
2022-12-29T21:48:27.227Z,997.27
2022-12-29T21:49:27.238Z,997.29
2022-12-29T21:50:27.279Z,997.28
2022-12-29T21:51:30.527Z,997.26
2022-12-29T21:52:27.254Z,997.3
2022-12-29T21:53:27.345Z,997.28
2022-12-29T21:54:27.310Z,997.32
2022-12-29T21:55:27.272Z,997.37
2022-12-29T21:56:27.275Z,997.4
2022-12-29T21:57:27.337Z,997.39
2022-12-29T21:58:27.304Z,997.38
2022-12-29T21:59:27.299Z,997.38
2022-12-29T22:00:27.302Z,997.4
2022-12-29T22:01:27.393Z,997.41
2022-12-29T22:02:27.562Z,997.46
2022-12-29T22:03:27.505Z,997.46
2022-12-29T22:04:27.363Z,997.48
2022-12-29T22:05:27.338Z,997.49
2022-12-29T22:06:27.945Z,997.49
2022-12-29T22:07:27.357Z,997.45
2022-12-29T22:08:27.371Z,997.47
2022-12-29T22:09:27.442Z,997.5
2022-12-29T22:10:27.541Z,997.51
2022-12-29T22:11:27.368Z,997.54
2022-12-29T22:12:27.375Z,997.52
2022-12-29T22:13:27.448Z,997.54
2022-12-29T22:14:27.407Z,997.52
2022-12-29T22:15:27.424Z,997.51
2022-12-29T22:16:28.087Z,997.48
2022-12-29T22:17:28.902Z,997.46
2022-12-29T22:18:27.454Z,997.46
2022-12-29T22:19:27.426Z,997.48
2022-12-29T22:20:27.429Z,997.45
2022-12-29T22:21:27.431Z,997.45
2022-12-29T22:22:27.437Z,997.43
2022-12-29T22:23:27.448Z,997.46
2022-12-29T22:24:27.469Z,997.4
2022-12-29T22:25:27.453Z,997.41
2022-12-29T22:26:27.535Z,997.46
2022-12-29T22:27:27.482Z,997.48
2022-12-29T22:28:27.715Z,997.44
2022-12-29T22:29:27.612Z,997.51
2022-12-29T22:30:27.494Z,997.49
2022-12-29T22:31:28.083Z,997.54
2022-12-29T22:32:27.497Z,997.59
2022-12-29T22:33:27.588Z,997.58
2022-12-29T22:34:27.513Z,997.69
2022-12-29T22:35:27.517Z,997.73
2022-12-29T22:36:27.524Z,997.72
2022-12-29T22:37:27.588Z,997.72
2022-12-29T22:38:27.538Z,997.74
2022-12-29T22:39:27.543Z,997.73
2022-12-29T22:40:28.157Z,997.76
2022-12-29T22:41:27.552Z,997.8
2022-12-29T22:42:27.573Z,997.78
2022-12-29T22:43:27.568Z,997.79
2022-12-29T22:44:27.641Z,997.77
2022-12-29T22:45:27.605Z,997.76
2022-12-29T22:46:27.647Z,997.79
2022-12-29T22:47:27.591Z,997.77
2022-12-29T22:48:27.634Z,997.85
2022-12-29T22:49:27.599Z,997.88
2022-12-29T22:50:27.615Z,997.9
2022-12-29T22:51:27.654Z,997.93
2022-12-29T22:52:27.623Z,998.01
2022-12-29T22:53:27.645Z,998.01
2022-12-29T22:54:27.629Z,998.07
2022-12-29T22:55:27.637Z,998.08
2022-12-29T22:56:27.829Z,998.09
2022-12-29T22:57:27.769Z,998.1
2022-12-29T22:58:27.684Z,998.11
2022-12-29T22:59:27.667Z,998.11
2022-12-29T23:00:27.666Z,998.13
2022-12-29T23:01:27.775Z,998.11
2022-12-29T23:02:27.921Z,998.13
2022-12-29T23:03:27.737Z,998.18
2022-12-29T23:05:27.699Z,998.24
2022-12-29T23:06:27.712Z,998.21
2022-12-29T23:07:27.749Z,998.22
2022-12-29T23:08:27.734Z,998.18
2022-12-29T23:09:27.717Z,998.22
2022-12-29T23:10:27.777Z,998.18
2022-12-29T23:11:28.035Z,998.18
2022-12-29T23:12:27.736Z,998.19
2022-12-29T23:13:29.165Z,998.16
2022-12-29T23:14:27.756Z,998.15
2022-12-29T23:15:28.353Z,998.19
2022-12-29T23:16:27.772Z,998.21
2022-12-29T23:17:27.884Z,998.22
2022-12-29T23:18:27.768Z,998.22
2022-12-29T23:19:27.873Z,998.25
2022-12-29T23:20:27.781Z,998.24
2022-12-29T23:21:27.788Z,998.18
2022-12-29T23:22:27.837Z,998.15
2022-12-29T23:23:27.799Z,998.14
2022-12-29T23:24:27.806Z,998.15
2022-12-29T23:25:27.811Z,998.05
2022-12-29T23:26:27.840Z,998.11
2022-12-29T23:27:28.330Z,998.08
2022-12-29T23:28:27.824Z,998.08
2022-12-29T23:29:27.894Z,998.15
2022-12-29T23:30:27.859Z,998.07
2022-12-29T23:31:27.991Z,998.15
2022-12-29T23:32:27.872Z,998.19
2022-12-29T23:33:28.078Z,998.18
2022-12-29T23:34:28.165Z,998.21
2022-12-29T23:35:27.878Z,998.19
2022-12-29T23:36:27.875Z,998.19
2022-12-29T23:37:27.881Z,998.21
2022-12-29T23:38:27.928Z,998.17
2022-12-29T23:39:27.893Z,998.14
2022-12-29T23:40:27.966Z,998.14
2022-12-29T23:41:27.954Z,998.12
2022-12-29T23:42:28.513Z,998.12
2022-12-29T23:43:27.912Z,998.13
2022-12-29T23:44:28.018Z,998.08
2022-12-29T23:45:27.933Z,998.07
2022-12-29T23:46:27.981Z,998.14
2022-12-29T23:47:27.939Z,998.21
2022-12-29T23:48:27.971Z,998.29
2022-12-29T23:49:27.978Z,998.31
2022-12-29T23:50:27.950Z,998.28